sensor_id;sensor_type;location;lat;lon;timestamp;P1;durP1;ratioP1;P2;durP2;ratioP2
56005;SDS011;41888;44.696;10.522;2022-07-30T00:01:59;14.80;;;10.02;;
56005;SDS011;41888;44.696;10.522;2022-07-30T00:04:25;10.63;;;9.18;;
56005;SDS011;41888;44.696;10.522;2022-07-30T00:06:52;12.35;;;9.20;;
56005;SDS011;41888;44.696;10.522;2022-07-30T00:09:18;11.23;;;8.50;;
56005;SDS011;41888;44.696;10.522;2022-07-30T00:11:44;12.43;;;8.98;;
56005;SDS011;41888;44.696;10.522;2022-07-30T00:14:10;11.15;;;9.15;;
56005;SDS011;41888;44.696;10.522;2022-07-30T00:16:37;13.18;;;9.82;;
56005;SDS011;41888;44.696;10.522;2022-07-30T00:19:03;13.30;;;9.32;;
56005;SDS011;41888;44.696;10.522;2022-07-30T00:21:29;15.38;;;10.23;;
56005;SDS011;41888;44.696;10.522;2022-07-30T00:23:55;13.82;;;9.07;;
56005;SDS011;41888;44.696;10.522;2022-07-30T00:26:21;13.52;;;10.40;;
56005;SDS011;41888;44.696;10.522;2022-07-30T00:28:47;11.57;;;9.52;;
56005;SDS011;41888;44.696;10.522;2022-07-30T00:31:14;12.70;;;9.07;;
56005;SDS011;41888;44.696;10.522;2022-07-30T00:33:40;15.93;;;9.95;;
56005;SDS011;41888;44.696;10.522;2022-07-30T00:36:06;13.93;;;8.95;;
56005;SDS011;41888;44.696;10.522;2022-07-30T00:38:32;11.68;;;9.05;;
56005;SDS011;41888;44.696;10.522;2022-07-30T00:40:58;10.52;;;8.18;;
56005;SDS011;41888;44.696;10.522;2022-07-30T00:43:24;11.43;;;9.35;;
56005;SDS011;41888;44.696;10.522;2022-07-30T00:45:51;11.50;;;9.30;;
56005;SDS011;41888;44.696;10.522;2022-07-30T00:48:17;12.60;;;10.25;;
56005;SDS011;41888;44.696;10.522;2022-07-30T00:50:43;13.95;;;9.57;;
56005;SDS011;41888;44.696;10.522;2022-07-30T00:53:09;12.20;;;9.82;;
56005;SDS011;41888;44.696;10.522;2022-07-30T00:55:35;12.63;;;10.38;;
56005;SDS011;41888;44.696;10.522;2022-07-30T00:58:02;12.88;;;8.77;;
56005;SDS011;41888;44.696;10.522;2022-07-30T01:00:28;13.90;;;9.75;;
56005;SDS011;41888;44.696;10.522;2022-07-30T01:02:54;12.73;;;9.65;;
56005;SDS011;41888;44.696;10.522;2022-07-30T01:05:22;10.98;;;9.00;;
56005;SDS011;41888;44.696;10.522;2022-07-30T01:07:48;14.15;;;9.25;;
56005;SDS011;41888;44.696;10.522;2022-07-30T01:10:16;14.00;;;9.98;;
56005;SDS011;41888;44.696;10.522;2022-07-30T01:12:42;13.50;;;10.95;;
56005;SDS011;41888;44.696;10.522;2022-07-30T01:15:10;15.00;;;10.43;;
56005;SDS011;41888;44.696;10.522;2022-07-30T01:17:37;12.93;;;10.65;;
56005;SDS011;41888;44.696;10.522;2022-07-30T01:20:14;14.05;;;10.32;;
56005;SDS011;41888;44.696;10.522;2022-07-30T01:28:01;15.57;;;12.38;;
56005;SDS011;41888;44.696;10.522;2022-07-30T01:30:37;17.58;;;12.30;;
56005;SDS011;41888;44.696;10.522;2022-07-30T01:33:05;17.80;;;12.57;;
56005;SDS011;41888;44.696;10.522;2022-07-30T01:35:35;17.65;;;12.65;;
56005;SDS011;41888;44.696;10.522;2022-07-30T01:38:04;16.20;;;13.25;;
56005;SDS011;41888;44.696;10.522;2022-07-30T01:40:30;16.45;;;12.25;;
56005;SDS011;41888;44.696;10.522;2022-07-30T01:42:59;18.15;;;14.20;;
56005;SDS011;41888;44.696;10.522;2022-07-30T01:45:27;17.65;;;13.98;;
56005;SDS011;41888;44.696;10.522;2022-07-30T01:47:56;20.05;;;14.55;;
56005;SDS011;41888;44.696;10.522;2022-07-30T01:50:24;18.40;;;14.48;;
56005;SDS011;41888;44.696;10.522;2022-07-30T01:52:53;18.15;;;13.30;;
56005;SDS011;41888;44.696;10.522;2022-07-30T01:55:25;19.58;;;14.10;;
56005;SDS011;41888;44.696;10.522;2022-07-30T01:58:00;17.08;;;13.30;;
56005;SDS011;41888;44.696;10.522;2022-07-30T02:00:28;14.60;;;12.15;;
56005;SDS011;41888;44.696;10.522;2022-07-30T02:02:57;18.58;;;13.52;;
56005;SDS011;41888;44.696;10.522;2022-07-30T02:05:24;16.90;;;13.45;;
56005;SDS011;41888;44.696;10.522;2022-07-30T02:10:43;16.13;;;13.27;;
56005;SDS011;41888;44.696;10.522;2022-07-30T02:13:14;18.40;;;14.05;;
56005;SDS011;41888;44.696;10.522;2022-07-30T02:15:53;17.52;;;13.73;;
56005;SDS011;41888;44.696;10.522;2022-07-30T02:21:12;18.75;;;13.95;;
56005;SDS011;41888;44.696;10.522;2022-07-30T02:23:43;17.85;;;13.43;;
56005;SDS011;41888;44.696;10.522;2022-07-30T02:26:13;19.80;;;14.05;;
56005;SDS011;41888;44.696;10.522;2022-07-30T02:28:47;20.33;;;13.73;;
56005;SDS011;41888;44.696;10.522;2022-07-30T02:31:18;18.05;;;13.52;;
56005;SDS011;41888;44.696;10.522;2022-07-30T02:33:47;16.92;;;12.93;;
56005;SDS011;41888;44.696;10.522;2022-07-30T02:36:17;17.88;;;12.77;;
56005;SDS011;41888;44.696;10.522;2022-07-30T02:38:46;14.10;;;12.57;;
56005;SDS011;41888;44.696;10.522;2022-07-30T02:41:15;16.23;;;12.00;;
56005;SDS011;41888;44.696;10.522;2022-07-30T02:43:43;16.95;;;13.13;;
56005;SDS011;41888;44.696;10.522;2022-07-30T02:46:12;19.88;;;14.43;;
56005;SDS011;41888;44.696;10.522;2022-07-30T02:48:42;14.77;;;12.25;;
56005;SDS011;41888;44.696;10.522;2022-07-30T02:51:10;17.83;;;13.20;;
56005;SDS011;41888;44.696;10.522;2022-07-30T02:53:39;14.57;;;11.88;;
56005;SDS011;41888;44.696;10.522;2022-07-30T02:56:09;14.98;;;12.27;;
56005;SDS011;41888;44.696;10.522;2022-07-30T02:58:36;16.33;;;11.90;;
56005;SDS011;41888;44.696;10.522;2022-07-30T03:01:05;15.70;;;11.43;;
56005;SDS011;41888;44.696;10.522;2022-07-30T03:03:33;17.08;;;12.48;;
56005;SDS011;41888;44.696;10.522;2022-07-30T03:06:00;17.55;;;12.93;;
56005;SDS011;41888;44.696;10.522;2022-07-30T03:08:27;16.00;;;12.18;;
56005;SDS011;41888;44.696;10.522;2022-07-30T03:10:57;16.15;;;12.27;;
56005;SDS011;41888;44.696;10.522;2022-07-30T03:13:24;16.23;;;12.82;;
56005;SDS011;41888;44.696;10.522;2022-07-30T03:15:50;16.90;;;12.60;;
56005;SDS011;41888;44.696;10.522;2022-07-30T03:18:18;14.35;;;11.15;;
56005;SDS011;41888;44.696;10.522;2022-07-30T03:20:48;17.73;;;12.77;;
56005;SDS011;41888;44.696;10.522;2022-07-30T03:23:18;16.48;;;11.43;;
56005;SDS011;41888;44.696;10.522;2022-07-30T03:25:50;13.70;;;10.43;;
56005;SDS011;41888;44.696;10.522;2022-07-30T03:28:23;16.83;;;11.65;;
56005;SDS011;41888;44.696;10.522;2022-07-30T03:30:50;16.65;;;11.02;;
56005;SDS011;41888;44.696;10.522;2022-07-30T03:33:18;16.23;;;10.93;;
56005;SDS011;41888;44.696;10.522;2022-07-30T03:35:45;14.23;;;11.07;;
56005;SDS011;41888;44.696;10.522;2022-07-30T03:38:13;15.63;;;11.43;;
56005;SDS011;41888;44.696;10.522;2022-07-30T03:40:41;12.82;;;10.80;;
56005;SDS011;41888;44.696;10.522;2022-07-30T03:43:09;13.68;;;10.40;;
56005;SDS011;41888;44.696;10.522;2022-07-30T03:45:37;14.73;;;11.50;;
56005;SDS011;41888;44.696;10.522;2022-07-30T03:48:06;17.70;;;11.52;;
56005;SDS011;41888;44.696;10.522;2022-07-30T03:50:36;13.93;;;10.57;;
56005;SDS011;41888;44.696;10.522;2022-07-30T03:53:07;15.35;;;11.02;;
56005;SDS011;41888;44.696;10.522;2022-07-30T03:55:35;15.13;;;11.82;;
56005;SDS011;41888;44.696;10.522;2022-07-30T03:58:02;16.15;;;12.77;;
56005;SDS011;41888;44.696;10.522;2022-07-30T04:00:30;19.80;;;13.77;;
56005;SDS011;41888;44.696;10.522;2022-07-30T04:02:56;21.25;;;14.13;;
56005;SDS011;41888;44.696;10.522;2022-07-30T04:05:22;21.50;;;14.27;;
56005;SDS011;41888;44.696;10.522;2022-07-30T04:07:49;22.27;;;15.32;;
56005;SDS011;41888;44.696;10.522;2022-07-30T04:10:15;22.00;;;16.13;;
56005;SDS011;41888;44.696;10.522;2022-07-30T04:12:41;20.85;;;14.65;;
56005;SDS011;41888;44.696;10.522;2022-07-30T04:15:08;22.45;;;14.88;;
56005;SDS011;41888;44.696;10.522;2022-07-30T04:17:36;22.85;;;15.90;;
56005;SDS011;41888;44.696;10.522;2022-07-30T04:20:08;21.50;;;15.52;;
56005;SDS011;41888;44.696;10.522;2022-07-30T04:22:44;20.48;;;14.50;;
56005;SDS011;41888;44.696;10.522;2022-07-30T04:25:12;21.90;;;15.82;;
56005;SDS011;41888;44.696;10.522;2022-07-30T04:27:39;22.35;;;14.95;;
56005;SDS011;41888;44.696;10.522;2022-07-30T04:30:05;24.92;;;15.48;;
56005;SDS011;41888;44.696;10.522;2022-07-30T04:32:32;21.85;;;14.80;;
56005;SDS011;41888;44.696;10.522;2022-07-30T04:34:59;22.83;;;13.95;;
56005;SDS011;41888;44.696;10.522;2022-07-30T04:37:27;23.10;;;15.82;;
56005;SDS011;41888;44.696;10.522;2022-07-30T04:39:53;22.92;;;15.77;;
56005;SDS011;41888;44.696;10.522;2022-07-30T04:42:22;24.13;;;15.55;;
56005;SDS011;41888;44.696;10.522;2022-07-30T04:44:49;24.48;;;15.38;;
56005;SDS011;41888;44.696;10.522;2022-07-30T04:47:16;24.42;;;16.33;;
56005;SDS011;41888;44.696;10.522;2022-07-30T04:49:42;24.10;;;16.05;;
56005;SDS011;41888;44.696;10.522;2022-07-30T04:52:10;26.13;;;16.95;;
56005;SDS011;41888;44.696;10.522;2022-07-30T04:54:39;24.67;;;15.02;;
56005;SDS011;41888;44.696;10.522;2022-07-30T04:57:10;24.77;;;15.70;;
56005;SDS011;41888;44.696;10.522;2022-07-30T04:59:39;26.30;;;17.33;;
56005;SDS011;41888;44.696;10.522;2022-07-30T05:02:05;26.48;;;16.80;;
56005;SDS011;41888;44.696;10.522;2022-07-30T05:04:33;30.60;;;17.73;;
56005;SDS011;41888;44.696;10.522;2022-07-30T05:07:00;27.60;;;17.73;;
56005;SDS011;41888;44.696;10.522;2022-07-30T05:09:27;26.20;;;17.05;;
56005;SDS011;41888;44.696;10.522;2022-07-30T05:11:54;29.33;;;17.73;;
56005;SDS011;41888;44.696;10.522;2022-07-30T05:14:21;29.13;;;18.73;;
56005;SDS011;41888;44.696;10.522;2022-07-30T05:16:48;26.10;;;17.30;;
56005;SDS011;41888;44.696;10.522;2022-07-30T05:19:15;24.30;;;16.65;;
56005;SDS011;41888;44.696;10.522;2022-07-30T05:21:42;27.35;;;18.13;;
56005;SDS011;41888;44.696;10.522;2022-07-30T05:24:09;25.38;;;17.60;;
56005;SDS011;41888;44.696;10.522;2022-07-30T05:26:35;24.40;;;16.10;;
56005;SDS011;41888;44.696;10.522;2022-07-30T05:29:02;25.17;;;15.75;;
56005;SDS011;41888;44.696;10.522;2022-07-30T05:31:28;20.85;;;15.77;;
56005;SDS011;41888;44.696;10.522;2022-07-30T05:33:54;22.95;;;15.63;;
56005;SDS011;41888;44.696;10.522;2022-07-30T05:36:21;20.65;;;14.52;;
56005;SDS011;41888;44.696;10.522;2022-07-30T05:38:47;25.48;;;16.20;;
56005;SDS011;41888;44.696;10.522;2022-07-30T05:41:13;21.58;;;14.40;;
56005;SDS011;41888;44.696;10.522;2022-07-30T05:43:40;21.35;;;12.98;;
56005;SDS011;41888;44.696;10.522;2022-07-30T05:46:07;18.48;;;13.52;;
56005;SDS011;41888;44.696;10.522;2022-07-30T05:48:33;18.92;;;12.70;;
56005;SDS011;41888;44.696;10.522;2022-07-30T05:51:01;19.38;;;12.80;;
56005;SDS011;41888;44.696;10.522;2022-07-30T05:53:27;18.25;;;13.38;;
56005;SDS011;41888;44.696;10.522;2022-07-30T05:55:53;17.60;;;12.05;;
56005;SDS011;41888;44.696;10.522;2022-07-30T05:58:19;15.32;;;10.95;;
56005;SDS011;41888;44.696;10.522;2022-07-30T06:00:46;14.43;;;11.13;;
56005;SDS011;41888;44.696;10.522;2022-07-30T06:03:13;17.65;;;11.18;;
56005;SDS011;41888;44.696;10.522;2022-07-30T06:05:39;19.40;;;12.35;;
56005;SDS011;41888;44.696;10.522;2022-07-30T06:08:05;15.93;;;11.50;;
56005;SDS011;41888;44.696;10.522;2022-07-30T06:10:32;15.02;;;11.07;;
56005;SDS011;41888;44.696;10.522;2022-07-30T06:12:58;17.45;;;12.18;;
56005;SDS011;41888;44.696;10.522;2022-07-30T06:15:24;17.85;;;13.50;;
56005;SDS011;41888;44.696;10.522;2022-07-30T06:17:51;17.88;;;12.48;;
56005;SDS011;41888;44.696;10.522;2022-07-30T06:20:17;17.92;;;12.23;;
56005;SDS011;41888;44.696;10.522;2022-07-30T06:22:44;20.83;;;12.98;;
56005;SDS011;41888;44.696;10.522;2022-07-30T06:25:10;16.17;;;12.05;;
56005;SDS011;41888;44.696;10.522;2022-07-30T06:27:37;17.02;;;12.48;;
56005;SDS011;41888;44.696;10.522;2022-07-30T06:30:04;15.65;;;10.02;;
56005;SDS011;41888;44.696;10.522;2022-07-30T06:32:32;14.50;;;10.45;;
56005;SDS011;41888;44.696;10.522;2022-07-30T06:34:59;12.45;;;8.85;;
56005;SDS011;41888;44.696;10.522;2022-07-30T06:37:25;16.95;;;10.43;;
56005;SDS011;41888;44.696;10.522;2022-07-30T06:39:52;14.43;;;10.75;;
56005;SDS011;41888;44.696;10.522;2022-07-30T06:42:18;13.27;;;9.85;;
56005;SDS011;41888;44.696;10.522;2022-07-30T06:44:45;12.65;;;8.98;;
56005;SDS011;41888;44.696;10.522;2022-07-30T06:47:11;12.98;;;8.50;;
56005;SDS011;41888;44.696;10.522;2022-07-30T06:49:37;10.95;;;7.97;;
56005;SDS011;41888;44.696;10.522;2022-07-30T06:52:04;9.70;;;6.85;;
56005;SDS011;41888;44.696;10.522;2022-07-30T06:54:30;7.55;;;6.05;;
56005;SDS011;41888;44.696;10.522;2022-07-30T06:56:56;12.02;;;6.35;;
56005;SDS011;41888;44.696;10.522;2022-07-30T06:59:22;7.60;;;5.18;;
56005;SDS011;41888;44.696;10.522;2022-07-30T07:01:48;6.97;;;5.70;;
56005;SDS011;41888;44.696;10.522;2022-07-30T07:04:18;7.22;;;5.57;;
56005;SDS011;41888;44.696;10.522;2022-07-30T07:06:44;12.75;;;5.53;;
56005;SDS011;41888;44.696;10.522;2022-07-30T07:09:10;9.35;;;5.97;;
56005;SDS011;41888;44.696;10.522;2022-07-30T07:11:37;8.95;;;7.07;;
56005;SDS011;41888;44.696;10.522;2022-07-30T07:14:03;9.88;;;6.95;;
56005;SDS011;41888;44.696;10.522;2022-07-30T07:16:29;8.68;;;6.93;;
56005;SDS011;41888;44.696;10.522;2022-07-30T07:18:55;10.80;;;6.38;;
56005;SDS011;41888;44.696;10.522;2022-07-30T07:21:21;12.88;;;6.60;;
56005;SDS011;41888;44.696;10.522;2022-07-30T07:23:48;9.95;;;6.18;;
56005;SDS011;41888;44.696;10.522;2022-07-30T07:26:14;8.82;;;6.45;;
56005;SDS011;41888;44.696;10.522;2022-07-30T07:28:41;9.15;;;6.63;;
56005;SDS011;41888;44.696;10.522;2022-07-30T07:31:08;11.73;;;6.68;;
56005;SDS011;41888;44.696;10.522;2022-07-30T07:33:35;10.77;;;7.43;;
56005;SDS011;41888;44.696;10.522;2022-07-30T07:36:02;9.35;;;6.00;;
56005;SDS011;41888;44.696;10.522;2022-07-30T07:38:28;10.70;;;6.57;;
56005;SDS011;41888;44.696;10.522;2022-07-30T07:40:55;9.13;;;6.43;;
56005;SDS011;41888;44.696;10.522;2022-07-30T07:43:21;10.68;;;7.32;;
56005;SDS011;41888;44.696;10.522;2022-07-30T07:45:49;9.60;;;7.10;;
56005;SDS011;41888;44.696;10.522;2022-07-30T07:48:16;8.75;;;5.57;;
56005;SDS011;41888;44.696;10.522;2022-07-30T07:50:42;7.43;;;5.18;;
56005;SDS011;41888;44.696;10.522;2022-07-30T07:53:08;7.03;;;5.68;;
56005;SDS011;41888;44.696;10.522;2022-07-30T07:55:35;6.60;;;5.57;;
56005;SDS011;41888;44.696;10.522;2022-07-30T07:58:01;8.80;;;5.18;;
56005;SDS011;41888;44.696;10.522;2022-07-30T08:00:27;9.65;;;4.97;;
56005;SDS011;41888;44.696;10.522;2022-07-30T08:02:53;8.75;;;5.03;;
56005;SDS011;41888;44.696;10.522;2022-07-30T08:05:20;11.10;;;4.97;;
56005;SDS011;41888;44.696;10.522;2022-07-30T08:07:46;18.60;;;6.25;;
56005;SDS011;41888;44.696;10.522;2022-07-30T08:10:12;7.47;;;4.40;;
56005;SDS011;41888;44.696;10.522;2022-07-30T08:12:40;8.48;;;5.43;;
56005;SDS011;41888;44.696;10.522;2022-07-30T08:15:07;7.07;;;4.30;;
56005;SDS011;41888;44.696;10.522;2022-07-30T08:17:43;7.80;;;4.82;;
56005;SDS011;41888;44.696;10.522;2022-07-30T08:20:10;9.80;;;4.32;;
56005;SDS011;41888;44.696;10.522;2022-07-30T08:22:38;8.05;;;4.35;;
56005;SDS011;41888;44.696;10.522;2022-07-30T08:25:05;6.55;;;3.90;;
56005;SDS011;41888;44.696;10.522;2022-07-30T08:27:32;6.55;;;4.00;;
56005;SDS011;41888;44.696;10.522;2022-07-30T08:30:01;5.32;;;3.60;;
56005;SDS011;41888;44.696;10.522;2022-07-30T08:32:29;6.63;;;3.78;;
56005;SDS011;41888;44.696;10.522;2022-07-30T08:34:55;5.00;;;4.00;;
56005;SDS011;41888;44.696;10.522;2022-07-30T08:37:21;6.45;;;4.28;;
56005;SDS011;41888;44.696;10.522;2022-07-30T08:39:47;4.88;;;4.13;;
56005;SDS011;41888;44.696;10.522;2022-07-30T08:42:13;5.30;;;4.20;;
56005;SDS011;41888;44.696;10.522;2022-07-30T08:44:40;7.30;;;3.75;;
56005;SDS011;41888;44.696;10.522;2022-07-30T08:47:10;6.47;;;3.30;;
56005;SDS011;41888;44.696;10.522;2022-07-30T08:49:40;4.45;;;3.13;;
56005;SDS011;41888;44.696;10.522;2022-07-30T08:52:08;4.55;;;3.53;;
56005;SDS011;41888;44.696;10.522;2022-07-30T08:54:35;4.85;;;3.30;;
56005;SDS011;41888;44.696;10.522;2022-07-30T08:57:01;5.88;;;3.50;;
56005;SDS011;41888;44.696;10.522;2022-07-30T08:59:27;5.13;;;3.20;;
56005;SDS011;41888;44.696;10.522;2022-07-30T09:01:55;5.88;;;3.08;;
56005;SDS011;41888;44.696;10.522;2022-07-30T09:04:22;5.65;;;4.35;;
56005;SDS011;41888;44.696;10.522;2022-07-30T09:06:48;6.90;;;4.05;;
56005;SDS011;41888;44.696;10.522;2022-07-30T09:09:15;5.80;;;3.95;;
56005;SDS011;41888;44.696;10.522;2022-07-30T09:11:41;4.63;;;3.55;;
56005;SDS011;41888;44.696;10.522;2022-07-30T09:14:08;6.40;;;3.08;;
56005;SDS011;41888;44.696;10.522;2022-07-30T09:16:36;4.28;;;3.70;;
56005;SDS011;41888;44.696;10.522;2022-07-30T09:19:10;6.70;;;3.50;;
56005;SDS011;41888;44.696;10.522;2022-07-30T09:21:38;5.10;;;2.72;;
56005;SDS011;41888;44.696;10.522;2022-07-30T09:24:06;4.43;;;3.50;;
56005;SDS011;41888;44.696;10.522;2022-07-30T09:26:50;4.30;;;3.67;;
56005;SDS011;41888;44.696;10.522;2022-07-30T09:29:24;5.10;;;3.47;;
56005;SDS011;41888;44.696;10.522;2022-07-30T09:34:30;6.57;;;3.33;;
56005;SDS011;41888;44.696;10.522;2022-07-30T09:37:02;5.03;;;3.30;;
56005;SDS011;41888;44.696;10.522;2022-07-30T09:39:41;4.97;;;3.70;;
56005;SDS011;41888;44.696;10.522;2022-07-30T09:42:18;3.75;;;3.00;;
56005;SDS011;41888;44.696;10.522;2022-07-30T09:44:45;4.57;;;3.38;;
56005;SDS011;41888;44.696;10.522;2022-07-30T09:50:04;3.70;;;3.05;;
56005;SDS011;41888;44.696;10.522;2022-07-30T09:52:32;4.15;;;2.72;;
56005;SDS011;41888;44.696;10.522;2022-07-30T09:54:59;4.53;;;3.20;;
56005;SDS011;41888;44.696;10.522;2022-07-30T09:57:25;4.30;;;3.38;;
56005;SDS011;41888;44.696;10.522;2022-07-30T09:59:51;7.90;;;4.75;;
56005;SDS011;41888;44.696;10.522;2022-07-30T10:02:18;4.95;;;2.80;;
56005;SDS011;41888;44.696;10.522;2022-07-30T10:04:44;4.53;;;2.67;;
56005;SDS011;41888;44.696;10.522;2022-07-30T10:07:17;3.03;;;2.55;;
56005;SDS011;41888;44.696;10.522;2022-07-30T10:09:46;5.22;;;2.85;;
56005;SDS011;41888;44.696;10.522;2022-07-30T10:12:13;3.72;;;3.20;;
56005;SDS011;41888;44.696;10.522;2022-07-30T10:14:43;3.15;;;2.60;;
56005;SDS011;41888;44.696;10.522;2022-07-30T10:17:11;4.55;;;3.00;;
56005;SDS011;41888;44.696;10.522;2022-07-30T10:19:38;4.88;;;3.28;;
56005;SDS011;41888;44.696;10.522;2022-07-30T10:22:04;4.95;;;3.10;;
56005;SDS011;41888;44.696;10.522;2022-07-30T10:24:33;6.50;;;3.30;;
56005;SDS011;41888;44.696;10.522;2022-07-30T10:27:00;4.60;;;2.85;;
56005;SDS011;41888;44.696;10.522;2022-07-30T10:29:27;3.47;;;2.60;;
56005;SDS011;41888;44.696;10.522;2022-07-30T10:31:53;3.97;;;2.60;;
56005;SDS011;41888;44.696;10.522;2022-07-30T10:34:19;3.30;;;2.00;;
56005;SDS011;41888;44.696;10.522;2022-07-30T10:36:47;5.55;;;2.83;;
56005;SDS011;41888;44.696;10.522;2022-07-30T10:39:23;5.13;;;2.50;;
56005;SDS011;41888;44.696;10.522;2022-07-30T10:47:18;3.95;;;2.40;;
56005;SDS011;41888;44.696;10.522;2022-07-30T10:50:04;3.92;;;3.00;;
56005;SDS011;41888;44.696;10.522;2022-07-30T10:52:41;2.95;;;2.30;;
56005;SDS011;41888;44.696;10.522;2022-07-30T10:55:16;4.03;;;2.90;;
56005;SDS011;41888;44.696;10.522;2022-07-30T10:58:18;2.90;;;2.00;;
56005;SDS011;41888;44.696;10.522;2022-07-30T11:05:51;3.88;;;2.70;;
56005;SDS011;41888;44.696;10.522;2022-07-30T11:08:46;4.55;;;2.97;;
56005;SDS011;41888;44.696;10.522;2022-07-30T11:16:24;3.97;;;2.50;;
56005;SDS011;41888;44.696;10.522;2022-07-30T11:19:16;4.65;;;3.20;;
56005;SDS011;41888;44.696;10.522;2022-07-30T11:21:50;2.88;;;2.25;;
56005;SDS011;41888;44.696;10.522;2022-07-30T11:24:55;3.20;;;2.88;;
56005;SDS011;41888;44.696;10.522;2022-07-30T11:27:43;4.22;;;2.50;;
56005;SDS011;41888;44.696;10.522;2022-07-30T11:32:52;3.97;;;2.92;;
56005;SDS011;41888;44.696;10.522;2022-07-30T11:35:39;3.10;;;2.80;;
56005;SDS011;41888;44.696;10.522;2022-07-30T11:38:13;4.15;;;3.17;;
56005;SDS011;41888;44.696;10.522;2022-07-30T11:43:25;3.83;;;2.97;;
56005;SDS011;41888;44.696;10.522;2022-07-30T11:46:13;4.28;;;3.78;;
56005;SDS011;41888;44.696;10.522;2022-07-30T11:49:02;4.55;;;2.80;;
56005;SDS011;41888;44.696;10.522;2022-07-30T11:51:42;3.50;;;2.55;;
56005;SDS011;41888;44.696;10.522;2022-07-30T11:54:10;5.85;;;3.03;;
56005;SDS011;41888;44.696;10.522;2022-07-30T11:56:51;4.50;;;2.70;;
56005;SDS011;41888;44.696;10.522;2022-07-30T11:59:19;3.92;;;2.90;;
56005;SDS011;41888;44.696;10.522;2022-07-30T12:01:49;4.90;;;2.92;;
56005;SDS011;41888;44.696;10.522;2022-07-30T12:04:16;3.72;;;2.88;;
56005;SDS011;41888;44.696;10.522;2022-07-30T12:06:43;3.50;;;2.75;;
56005;SDS011;41888;44.696;10.522;2022-07-30T12:09:11;3.97;;;2.72;;
56005;SDS011;41888;44.696;10.522;2022-07-30T12:11:45;4.18;;;2.80;;
56005;SDS011;41888;44.696;10.522;2022-07-30T12:14:11;3.83;;;3.10;;
56005;SDS011;41888;44.696;10.522;2022-07-30T12:16:38;4.80;;;2.80;;
56005;SDS011;41888;44.696;10.522;2022-07-30T12:19:06;3.33;;;2.40;;
56005;SDS011;41888;44.696;10.522;2022-07-30T12:21:32;3.60;;;2.30;;
56005;SDS011;41888;44.696;10.522;2022-07-30T12:24:00;4.13;;;2.40;;
56005;SDS011;41888;44.696;10.522;2022-07-30T12:26:32;5.25;;;2.17;;
56005;SDS011;41888;44.696;10.522;2022-07-30T12:29:03;2.63;;;1.88;;
56005;SDS011;41888;44.696;10.522;2022-07-30T12:31:34;3.78;;;2.88;;
56005;SDS011;41888;44.696;10.522;2022-07-30T12:34:00;4.93;;;2.80;;
56005;SDS011;41888;44.696;10.522;2022-07-30T12:36:33;2.55;;;2.10;;
56005;SDS011;41888;44.696;10.522;2022-07-30T12:39:00;3.67;;;2.42;;
56005;SDS011;41888;44.696;10.522;2022-07-30T12:41:42;4.88;;;2.50;;
56005;SDS011;41888;44.696;10.522;2022-07-30T12:44:09;3.33;;;2.05;;
56005;SDS011;41888;44.696;10.522;2022-07-30T12:46:55;3.72;;;2.20;;
56005;SDS011;41888;44.696;10.522;2022-07-30T12:49:26;3.25;;;2.53;;
56005;SDS011;41888;44.696;10.522;2022-07-30T12:51:53;3.13;;;2.28;;
56005;SDS011;41888;44.696;10.522;2022-07-30T12:54:20;3.45;;;2.42;;
56005;SDS011;41888;44.696;10.522;2022-07-30T12:59:22;3.47;;;2.33;;
56005;SDS011;41888;44.696;10.522;2022-07-30T13:01:50;3.65;;;2.28;;
56005;SDS011;41888;44.696;10.522;2022-07-30T13:04:17;2.72;;;2.17;;
56005;SDS011;41888;44.696;10.522;2022-07-30T13:06:43;2.20;;;1.92;;
56005;SDS011;41888;44.696;10.522;2022-07-30T13:09:28;3.42;;;2.00;;
56005;SDS011;41888;44.696;10.522;2022-07-30T13:11:54;2.47;;;1.83;;
56005;SDS011;41888;44.696;10.522;2022-07-30T13:14:29;2.63;;;1.98;;
56005;SDS011;41888;44.696;10.522;2022-07-30T13:16:56;2.85;;;2.03;;
56005;SDS011;41888;44.696;10.522;2022-07-30T13:19:23;1.85;;;1.58;;
56005;SDS011;41888;44.696;10.522;2022-07-30T13:21:50;2.20;;;1.88;;
56005;SDS011;41888;44.696;10.522;2022-07-30T13:24:16;2.95;;;2.38;;
56005;SDS011;41888;44.696;10.522;2022-07-30T13:26:43;6.97;;;3.03;;
56005;SDS011;41888;44.696;10.522;2022-07-30T13:29:10;7.65;;;5.15;;
56005;SDS011;41888;44.696;10.522;2022-07-30T13:31:37;4.68;;;2.97;;
56005;SDS011;41888;44.696;10.522;2022-07-30T13:34:04;7.30;;;5.00;;
56005;SDS011;41888;44.696;10.522;2022-07-30T13:36:30;4.90;;;2.70;;
56005;SDS011;41888;44.696;10.522;2022-07-30T13:38:57;2.70;;;1.88;;
56005;SDS011;41888;44.696;10.522;2022-07-30T13:41:23;4.07;;;2.30;;
56005;SDS011;41888;44.696;10.522;2022-07-30T13:43:49;5.13;;;3.47;;
56005;SDS011;41888;44.696;10.522;2022-07-30T13:46:15;3.10;;;1.73;;
56005;SDS011;41888;44.696;10.522;2022-07-30T13:48:42;3.03;;;1.45;;
56005;SDS011;41888;44.696;10.522;2022-07-30T13:51:08;2.58;;;1.60;;
56005;SDS011;41888;44.696;10.522;2022-07-30T13:53:35;2.13;;;1.40;;
56005;SDS011;41888;44.696;10.522;2022-07-30T13:56:01;2.10;;;1.23;;
56005;SDS011;41888;44.696;10.522;2022-07-30T13:58:27;1.88;;;1.40;;
56005;SDS011;41888;44.696;10.522;2022-07-30T14:00:54;2.40;;;1.92;;
56005;SDS011;41888;44.696;10.522;2022-07-30T14:03:20;2.53;;;1.75;;
56005;SDS011;41888;44.696;10.522;2022-07-30T14:05:46;3.53;;;1.83;;
56005;SDS011;41888;44.696;10.522;2022-07-30T14:08:12;5.07;;;3.75;;
56005;SDS011;41888;44.696;10.522;2022-07-30T14:10:39;3.83;;;2.67;;
56005;SDS011;41888;44.696;10.522;2022-07-30T14:13:06;3.03;;;1.90;;
56005;SDS011;41888;44.696;10.522;2022-07-30T14:15:34;2.38;;;1.98;;
56005;SDS011;41888;44.696;10.522;2022-07-30T14:18:01;3.50;;;2.38;;
56005;SDS011;41888;44.696;10.522;2022-07-30T14:20:27;6.13;;;3.30;;
56005;SDS011;41888;44.696;10.522;2022-07-30T14:22:54;3.58;;;2.10;;
56005;SDS011;41888;44.696;10.522;2022-07-30T14:25:20;3.22;;;2.10;;
56005;SDS011;41888;44.696;10.522;2022-07-30T14:27:47;3.88;;;1.60;;
56005;SDS011;41888;44.696;10.522;2022-07-30T14:30:13;2.50;;;1.73;;
56005;SDS011;41888;44.696;10.522;2022-07-30T14:32:39;3.72;;;2.97;;
56005;SDS011;41888;44.696;10.522;2022-07-30T14:35:06;3.88;;;1.95;;
56005;SDS011;41888;44.696;10.522;2022-07-30T14:37:34;3.00;;;1.98;;
56005;SDS011;41888;44.696;10.522;2022-07-30T14:40:02;3.17;;;1.73;;
56005;SDS011;41888;44.696;10.522;2022-07-30T14:42:29;2.65;;;2.10;;
56005;SDS011;41888;44.696;10.522;2022-07-30T14:44:56;3.78;;;2.17;;
56005;SDS011;41888;44.696;10.522;2022-07-30T14:47:22;4.18;;;2.67;;
56005;SDS011;41888;44.696;10.522;2022-07-30T14:49:53;2.83;;;1.92;;
56005;SDS011;41888;44.696;10.522;2022-07-30T14:52:19;3.33;;;2.20;;
56005;SDS011;41888;44.696;10.522;2022-07-30T14:54:45;2.30;;;1.85;;
56005;SDS011;41888;44.696;10.522;2022-07-30T14:57:12;3.22;;;1.83;;
56005;SDS011;41888;44.696;10.522;2022-07-30T14:59:38;2.58;;;1.80;;
56005;SDS011;41888;44.696;10.522;2022-07-30T15:02:04;2.83;;;1.85;;
56005;SDS011;41888;44.696;10.522;2022-07-30T15:04:31;3.13;;;1.58;;
56005;SDS011;41888;44.696;10.522;2022-07-30T15:06:57;2.20;;;1.90;;
56005;SDS011;41888;44.696;10.522;2022-07-30T15:09:23;2.63;;;1.80;;
56005;SDS011;41888;44.696;10.522;2022-07-30T15:11:50;1.98;;;1.25;;